sensor_id;sensor_type;location;lat;lon;timestamp;temperature;humidity
4501;DHT22;2263;54.654;9.410;2022-12-11T00:01:19;0.50;87.00
4501;DHT22;2263;54.654;9.410;2022-12-11T00:03:47;0.50;87.30
4501;DHT22;2263;54.654;9.410;2022-12-11T00:06:19;0.50;86.90
4501;DHT22;2263;54.654;9.410;2022-12-11T00:08:49;0.40;87.50
4501;DHT22;2263;54.654;9.410;2022-12-11T00:11:16;0.50;87.50
4501;DHT22;2263;54.654;9.410;2022-12-11T00:13:44;0.40;87.80
4501;DHT22;2263;54.654;9.410;2022-12-11T00:16:11;0.40;87.70
4501;DHT22;2263;54.654;9.410;2022-12-11T00:18:38;0.40;87.80
4501;DHT22;2263;54.654;9.410;2022-12-11T00:21:09;0.40;87.90
4501;DHT22;2263;54.654;9.410;2022-12-11T00:23:37;0.40;87.50
4501;DHT22;2263;54.654;9.410;2022-12-11T00:26:06;0.40;87.40
4501;DHT22;2263;54.654;9.410;2022-12-11T00:28:35;0.40;87.10
4501;DHT22;2263;54.654;9.410;2022-12-11T00:31:06;0.30;87.00
4501;DHT22;2263;54.654;9.410;2022-12-11T00:33:34;0.40;87.30
4501;DHT22;2263;54.654;9.410;2022-12-11T00:36:01;0.30;87.40
4501;DHT22;2263;54.654;9.410;2022-12-11T00:38:28;0.30;87.10
4501;DHT22;2263;54.654;9.410;2022-12-11T00:40:58;0.30;87.30
4501;DHT22;2263;54.654;9.410;2022-12-11T00:43:26;0.30;87.40
4501;DHT22;2263;54.654;9.410;2022-12-11T00:45:52;0.30;87.30
4501;DHT22;2263;54.654;9.410;2022-12-11T00:48:20;0.30;87.40
4501;DHT22;2263;54.654;9.410;2022-12-11T00:50:47;0.30;87.10
4501;DHT22;2263;54.654;9.410;2022-12-11T00:53:14;0.30;87.20
4501;DHT22;2263;54.654;9.410;2022-12-11T00:55:42;0.30;87.50
4501;DHT22;2263;54.654;9.410;2022-12-11T00:58:10;0.30;87.40
4501;DHT22;2263;54.654;9.410;2022-12-11T01:00:39;0.20;87.50
4501;DHT22;2263;54.654;9.410;2022-12-11T01:03:07;0.20;87.50
4501;DHT22;2263;54.654;9.410;2022-12-11T01:05:34;0.20;87.60
4501;DHT22;2263;54.654;9.410;2022-12-11T01:08:02;0.20;87.50
4501;DHT22;2263;54.654;9.410;2022-12-11T01:10:30;0.20;87.60
4501;DHT22;2263;54.654;9.410;2022-12-11T01:13:00;0.20;87.30
4501;DHT22;2263;54.654;9.410;2022-12-11T01:15:31;0.20;86.90
4501;DHT22;2263;54.654;9.410;2022-12-11T01:18:01;0.10;86.70
4501;DHT22;2263;54.654;9.410;2022-12-11T01:20:28;0.10;86.80
4501;DHT22;2263;54.654;9.410;2022-12-11T01:22:57;0.10;86.20
4501;DHT22;2263;54.654;9.410;2022-12-11T01:25:26;0.10;86.40
4501;DHT22;2263;54.654;9.410;2022-12-11T01:27:55;0.10;86.90
4501;DHT22;2263;54.654;9.410;2022-12-11T01:30:23;0.00;86.90
4501;DHT22;2263;54.654;9.410;2022-12-11T01:32:51;0.00;86.80
4501;DHT22;2263;54.654;9.410;2022-12-11T01:35:19;0.00;86.90
4501;DHT22;2263;54.654;9.410;2022-12-11T01:37:47;0.00;87.10
4501;DHT22;2263;54.654;9.410;2022-12-11T01:40:17;0.00;87.20
4501;DHT22;2263;54.654;9.410;2022-12-11T01:42:44;0.00;87.30
4501;DHT22;2263;54.654;9.410;2022-12-11T01:47:54;0.00;87.10
4501;DHT22;2263;54.654;9.410;2022-12-11T01:50:22;0.00;87.10
4501;DHT22;2263;54.654;9.410;2022-12-11T01:52:54;0.00;86.80
4501;DHT22;2263;54.654;9.410;2022-12-11T01:55:21;-0.10;86.80
4501;DHT22;2263;54.654;9.410;2022-12-11T01:57:49;-0.10;86.90
4501;DHT22;2263;54.654;9.410;2022-12-11T02:00:17;-0.10;87.10
4501;DHT22;2263;54.654;9.410;2022-12-11T02:02:44;-0.10;87.10
4501;DHT22;2263;54.654;9.410;2022-12-11T02:05:12;-0.10;87.10
4501;DHT22;2263;54.654;9.410;2022-12-11T02:07:55;-0.10;87.10
4501;DHT22;2263;54.654;9.410;2022-12-11T02:10:31;-0.10;87.30
4501;DHT22;2263;54.654;9.410;2022-12-11T02:13:08;-0.10;87.30
4501;DHT22;2263;54.654;9.410;2022-12-11T02:15:47;-0.10;87.20
4501;DHT22;2263;54.654;9.410;2022-12-11T02:21:18;-0.20;87.10
4501;DHT22;2263;54.654;9.410;2022-12-11T02:29:12;-0.20;87.20
4501;DHT22;2263;54.654;9.410;2022-12-11T02:31:51;-0.20;87.20
4501;DHT22;2263;54.654;9.410;2022-12-11T02:34:41;-0.20;87.20
4501;DHT22;2263;54.654;9.410;2022-12-11T02:37:20;-0.30;87.00
4501;DHT22;2263;54.654;9.410;2022-12-11T02:39:51;-0.30;87.00
4501;DHT22;2263;54.654;9.410;2022-12-11T02:42:20;-0.30;87.00
4501;DHT22;2263;54.654;9.410;2022-12-11T02:44:49;-0.30;86.90
4501;DHT22;2263;54.654;9.410;2022-12-11T02:47:18;-0.30;86.80
4501;DHT22;2263;54.654;9.410;2022-12-11T02:49:48;-0.30;86.90
4501;DHT22;2263;54.654;9.410;2022-12-11T02:52:18;-0.30;86.70
4501;DHT22;2263;54.654;9.410;2022-12-11T02:54:47;-0.30;86.80
4501;DHT22;2263;54.654;9.410;2022-12-11T03:00:09;-0.30;87.00
4501;DHT22;2263;54.654;9.410;2022-12-11T03:02:38;-0.40;86.90
4501;DHT22;2263;54.654;9.410;2022-12-11T03:05:06;-0.40;86.90
4501;DHT22;2263;54.654;9.410;2022-12-11T03:07:37;-0.40;87.00
4501;DHT22;2263;54.654;9.410;2022-12-11T03:10:07;-0.40;86.90
4501;DHT22;2263;54.654;9.410;2022-12-11T03:12:38;-0.40;87.00
4501;DHT22;2263;54.654;9.410;2022-12-11T03:15:08;-0.40;87.00
4501;DHT22;2263;54.654;9.410;2022-12-11T03:18:03;-0.40;87.00
4501;DHT22;2263;54.654;9.410;2022-12-11T03:23:18;-0.50;86.80
4501;DHT22;2263;54.654;9.410;2022-12-11T03:26:04;-0.50;86.90
4501;DHT22;2263;54.654;9.410;2022-12-11T03:28:46;-0.50;86.80
4501;DHT22;2263;54.654;9.410;2022-12-11T03:31:46;-0.50;86.70
4501;DHT22;2263;54.654;9.410;2022-12-11T03:34:21;-0.50;86.80
4501;DHT22;2263;54.654;9.410;2022-12-11T03:36:49;-0.50;86.80
4501;DHT22;2263;54.654;9.410;2022-12-11T03:39:34;-0.50;86.90
4501;DHT22;2263;54.654;9.410;2022-12-11T03:42:05;-0.60;86.70
4501;DHT22;2263;54.654;9.410;2022-12-11T03:44:35;-0.50;86.70
4501;DHT22;2263;54.654;9.410;2022-12-11T03:47:05;-0.60;86.70
4501;DHT22;2263;54.654;9.410;2022-12-11T03:49:37;-0.60;86.70
4501;DHT22;2263;54.654;9.410;2022-12-11T03:52:06;-0.60;86.60
4501;DHT22;2263;54.654;9.410;2022-12-11T03:54:35;-0.60;86.70
4501;DHT22;2263;54.654;9.410;2022-12-11T03:57:04;-0.60;86.70
4501;DHT22;2263;54.654;9.410;2022-12-11T03:59:33;-0.60;86.80
4501;DHT22;2263;54.654;9.410;2022-12-11T04:02:00;-0.70;86.60
4501;DHT22;2263;54.654;9.410;2022-12-11T04:04:27;-0.70;86.60
4501;DHT22;2263;54.654;9.410;2022-12-11T04:06:54;-0.70;86.10
4501;DHT22;2263;54.654;9.410;2022-12-11T04:09:21;-0.70;85.90
4501;DHT22;2263;54.654;9.410;2022-12-11T04:11:48;-0.70;85.60
4501;DHT22;2263;54.654;9.410;2022-12-11T04:14:15;-0.70;85.70
4501;DHT22;2263;54.654;9.410;2022-12-11T04:17:01;-0.80;85.90
4501;DHT22;2263;54.654;9.410;2022-12-11T04:19:28;-0.80;86.20
4501;DHT22;2263;54.654;9.410;2022-12-11T04:22:15;-0.80;86.20
4501;DHT22;2263;54.654;9.410;2022-12-11T04:25:01;-0.80;86.30
4501;DHT22;2263;54.654;9.410;2022-12-11T04:27:29;-0.80;86.20
4501;DHT22;2263;54.654;9.410;2022-12-11T04:30:17;-0.80;86.30
4501;DHT22;2263;54.654;9.410;2022-12-11T04:32:44;-0.80;86.30
4501;DHT22;2263;54.654;9.410;2022-12-11T04:35:12;-0.90;86.30
4501;DHT22;2263;54.654;9.410;2022-12-11T04:37:40;-0.80;86.20
4501;DHT22;2263;54.654;9.410;2022-12-11T04:40:11;-0.90;86.30
4501;DHT22;2263;54.654;9.410;2022-12-11T04:42:39;-0.90;86.20
4501;DHT22;2263;54.654;9.410;2022-12-11T04:45:07;-0.90;86.20
4501;DHT22;2263;54.654;9.410;2022-12-11T04:47:36;-0.90;86.30
4501;DHT22;2263;54.654;9.410;2022-12-11T04:50:06;-0.90;85.90
4501;DHT22;2263;54.654;9.410;2022-12-11T04:52:33;-0.90;86.00
4501;DHT22;2263;54.654;9.410;2022-12-11T04:55:03;-0.90;85.90
4501;DHT22;2263;54.654;9.410;2022-12-11T04:57:30;-1.00;86.00
4501;DHT22;2263;54.654;9.410;2022-12-11T04:59:57;-1.00;86.00
4501;DHT22;2263;54.654;9.410;2022-12-11T05:02:26;-1.00;85.70
4501;DHT22;2263;54.654;9.410;2022-12-11T05:04:53;-1.00;85.40
4501;DHT22;2263;54.654;9.410;2022-12-11T05:07:20;-1.00;85.10
4501;DHT22;2263;54.654;9.410;2022-12-11T05:09:47;-1.00;85.30
4501;DHT22;2263;54.654;9.410;2022-12-11T05:12:14;-1.00;85.10
4501;DHT22;2263;54.654;9.410;2022-12-11T05:14:41;-1.10;84.50
4501;DHT22;2263;54.654;9.410;2022-12-11T05:17:08;-1.10;84.70
4501;DHT22;2263;54.654;9.410;2022-12-11T05:19:35;-1.10;85.10
4501;DHT22;2263;54.654;9.410;2022-12-11T05:22:02;-1.10;85.80
4501;DHT22;2263;54.654;9.410;2022-12-11T05:24:29;-1.10;85.60
4501;DHT22;2263;54.654;9.410;2022-12-11T05:26:56;-1.10;85.30
4501;DHT22;2263;54.654;9.410;2022-12-11T05:29:23;-1.10;85.10
4501;DHT22;2263;54.654;9.410;2022-12-11T05:31:51;-1.10;85.30
4501;DHT22;2263;54.654;9.410;2022-12-11T05:34:18;-1.10;85.50
4501;DHT22;2263;54.654;9.410;2022-12-11T05:36:45;-1.10;85.30
4501;DHT22;2263;54.654;9.410;2022-12-11T05:39:13;-1.10;85.20
4501;DHT22;2263;54.654;9.410;2022-12-11T05:41:40;-1.10;85.40
4501;DHT22;2263;54.654;9.410;2022-12-11T05:44:08;-1.10;85.40
4501;DHT22;2263;54.654;9.410;2022-12-11T05:46:36;-1.10;85.40
4501;DHT22;2263;54.654;9.410;2022-12-11T05:49:03;-1.10;85.90
4501;DHT22;2263;54.654;9.410;2022-12-11T05:51:31;-1.10;86.10
4501;DHT22;2263;54.654;9.410;2022-12-11T05:54:00;-1.10;86.30
4501;DHT22;2263;54.654;9.410;2022-12-11T05:56:31;-1.10;86.30
4501;DHT22;2263;54.654;9.410;2022-12-11T05:59:00;-1.10;86.10
4501;DHT22;2263;54.654;9.410;2022-12-11T06:03:57;-1.10;85.80
4501;DHT22;2263;54.654;9.410;2022-12-11T06:06:25;-1.10;85.80
4501;DHT22;2263;54.654;9.410;2022-12-11T06:08:54;-1.20;85.70
4501;DHT22;2263;54.654;9.410;2022-12-11T06:11:23;-1.20;85.70
4501;DHT22;2263;54.654;9.410;2022-12-11T06:13:51;-1.20;85.60
4501;DHT22;2263;54.654;9.410;2022-12-11T06:16:20;-1.20;85.80
4501;DHT22;2263;54.654;9.410;2022-12-11T06:18:47;-1.20;85.90
4501;DHT22;2263;54.654;9.410;2022-12-11T06:21:20;-1.20;86.00
4501;DHT22;2263;54.654;9.410;2022-12-11T06:23:51;-1.20;85.80
4501;DHT22;2263;54.654;9.410;2022-12-11T06:26:19;-1.20;86.00
4501;DHT22;2263;54.654;9.410;2022-12-11T06:28:47;-1.20;86.00
4501;DHT22;2263;54.654;9.410;2022-12-11T06:31:14;-1.30;86.00
4501;DHT22;2263;54.654;9.410;2022-12-11T06:33:42;-1.20;86.40
4501;DHT22;2263;54.654;9.410;2022-12-11T06:36:17;-1.20;86.50
4501;DHT22;2263;54.654;9.410;2022-12-11T06:38:45;-1.20;86.20
4501;DHT22;2263;54.654;9.410;2022-12-11T06:41:12;-1.20;86.10
4501;DHT22;2263;54.654;9.410;2022-12-11T06:43:40;-1.20;86.40
4501;DHT22;2263;54.654;9.410;2022-12-11T06:46:10;-1.30;86.40
4501;DHT22;2263;54.654;9.410;2022-12-11T06:48:39;-1.30;86.70
4501;DHT22;2263;54.654;9.410;2022-12-11T06:51:12;-1.30;86.50
4501;DHT22;2263;54.654;9.410;2022-12-11T06:53:40;-1.30;86.70
4501;DHT22;2263;54.654;9.410;2022-12-11T06:56:10;-1.30;86.70
4501;DHT22;2263;54.654;9.410;2022-12-11T06:58:38;-1.30;86.70
4501;DHT22;2263;54.654;9.410;2022-12-11T07:01:14;-1.30;86.80
4501;DHT22;2263;54.654;9.410;2022-12-11T07:03:42;-1.30;86.80
4501;DHT22;2263;54.654;9.410;2022-12-11T07:06:09;-1.40;86.60
4501;DHT22;2263;54.654;9.410;2022-12-11T07:08:37;-1.30;86.80
4501;DHT22;2263;54.654;9.410;2022-12-11T07:11:07;-1.40;86.70
4501;DHT22;2263;54.654;9.410;2022-12-11T07:13:34;-1.40;86.70
4501;DHT22;2263;54.654;9.410;2022-12-11T07:16:02;-1.40;86.80
4501;DHT22;2263;54.654;9.410;2022-12-11T07:18:31;-1.40;86.80
4501;DHT22;2263;54.654;9.410;2022-12-11T07:20:58;-1.40;86.70
4501;DHT22;2263;54.654;9.410;2022-12-11T07:23:27;-1.40;86.70
4501;DHT22;2263;54.654;9.410;2022-12-11T07:25:54;-1.40;86.60
4501;DHT22;2263;54.654;9.410;2022-12-11T07:28:22;-1.40;86.60
4501;DHT22;2263;54.654;9.410;2022-12-11T07:30:49;-1.40;86.70
4501;DHT22;2263;54.654;9.410;2022-12-11T07:33:17;-1.50;86.60
4501;DHT22;2263;54.654;9.410;2022-12-11T07:35:44;-1.40;86.60
4501;DHT22;2263;54.654;9.410;2022-12-11T07:38:11;-1.50;86.20
4501;DHT22;2263;54.654;9.410;2022-12-11T07:40:38;-1.50;86.00
4501;DHT22;2263;54.654;9.410;2022-12-11T07:43:05;-1.50;85.80
4501;DHT22;2263;54.654;9.410;2022-12-11T07:45:32;-1.50;85.70
4501;DHT22;2263;54.654;9.410;2022-12-11T07:47:59;-1.50;85.90
4501;DHT22;2263;54.654;9.410;2022-12-11T07:50:26;-1.50;86.00
4501;DHT22;2263;54.654;9.410;2022-12-11T07:52:53;-1.50;85.80
4501;DHT22;2263;54.654;9.410;2022-12-11T07:55:20;-1.50;85.60
4501;DHT22;2263;54.654;9.410;2022-12-11T07:57:47;-1.50;85.60
4501;DHT22;2263;54.654;9.410;2022-12-11T08:00:15;-1.60;85.50
4501;DHT22;2263;54.654;9.410;2022-12-11T08:02:42;-1.60;85.40
4501;DHT22;2263;54.654;9.410;2022-12-11T08:05:09;-1.70;85.70
